Edinburg, TX

7:32 AM CST on February 13, 2016 (GMT -0600)
Edinburg

Weather History for KEBG - March, 2013

Change the Weather History Date:

Wednesday, March 13, 2013

  Actual Average (KMFE) Record (KMFE)
Temperature  
Mean Temperature 65 °F 70 °F  
Max Temperature 81 °F 81 °F 99 °F (2005)
Min Temperature 49 °F 59 °F 31 °F (1888)
Degree Days  
Heating Degree Days 0 1  
Month to date heating degree days 24  
Since 1 July heating degree days 557  
Cooling Degree Days 0 7  
Month to date cooling degree days 74  
Year to date cooling degree days 233  
Growing Degree Days 15 (Base 50)    
Moisture  
Dew Point 46 °F    
Average Humidity 54    
Maximum Humidity 82    
Minimum Humidity 23    
Precipitation  
Precipitation 0.00 in 0.03 in 2.60 in (1972)
Month to date precipitation 0.46  
Year to date precipitation 2.62  
Sea Level Pressure  
Sea Level Pressure 30.31 in    
Wind  
Wind Speed 5 mph (East)    
Max Wind Speed 18 mph    
Max Gust Speed 24 mph    
Visibility 7 miles    
Events      
T = Trace of Precipitation, MM = Missing Value Source: NWS Daily Summary

Daily Weather History Graph

Daily Weather History Graph

Search for Another Location

Airport or City:

Trip Planner

Search our weather history database for the weather conditions in past years. The results will help you decide how hot, cold, wet, or windy it might be!

Date:

Astronomy

Mar. 13, 2013 Rise Set
Actual Time 7:43 AM CDT 7:40 PM CDT
Civil Twilight 7:20 AM CDT 8:03 PM CDT
Nautical Twilight 6:53 AM CDT 8:30 PM CDT
Astronomical Twilight 6:26 AM CDT 8:57 PM CDT
Moon 8:38 AM CDT 9:40 PM CDT
Length of Visible Light 12h 42m
Length of Day
11h 56m
Waxing Crescent, 4% of the Moon is Illuminated
Mar 13
Waxing Crescent
Mar 19
First Quarter
Mar 27
Full
Apr 2
Last Quarter
Apr 10
New

Hourly Weather History & Observations

Time (CDT) Temp. Dew Point Humidity Pressure Visibility Wind Dir Wind Speed Gust Speed Precip Events Conditions
12:15 AM 57.7 °F 45.9 °F 65% 30.24 in 7.0 mi Calm Calm - N/A   Clear
12:55 AM 55.4 °F 45.0 °F 68% 30.24 in 7.0 mi Calm Calm - N/A   Clear
1:15 AM 56.3 °F 45.5 °F 67% 30.24 in 7.0 mi Calm Calm - N/A   Clear
1:35 AM 55.6 °F 45.0 °F 67% 30.24 in 7.0 mi Calm Calm - N/A   Clear
1:55 AM 54.0 °F 43.7 °F 68% 30.24 in 7.0 mi Calm Calm - N/A   Clear
2:15 AM 57.0 °F 45.9 °F 66% 30.25 in 7.0 mi Calm Calm - N/A   Clear
2:35 AM 56.1 °F 45.5 °F 68% 30.24 in 7.0 mi Calm Calm - N/A   Clear
2:55 AM 55.8 °F 45.7 °F 69% 30.24 in 7.0 mi SSE 3.5 mph - N/A   Clear
3:15 AM 54.9 °F 46.0 °F 72% 30.24 in 7.0 mi SSE 5.8 mph - N/A   Clear
3:35 AM 55.0 °F 46.6 °F 73% 30.23 in 7.0 mi South 4.6 mph - N/A   Clear
3:55 AM 56.1 °F 47.3 °F 72% 30.23 in 7.0 mi Calm Calm - N/A   Clear
4:15 AM 55.9 °F 47.3 °F 73% 30.24 in 7.0 mi Calm Calm - N/A   Clear
4:35 AM 55.4 °F 47.3 °F 74% 30.24 in 7.0 mi Calm Calm - N/A   Clear
4:55 AM 54.7 °F 47.3 °F 76% 30.24 in 7.0 mi Calm Calm - N/A   Clear
5:15 AM 53.2 °F 45.9 °F 76% 30.24 in 7.0 mi Calm Calm - N/A   Clear
5:35 AM 52.5 °F 45.9 °F 78% 30.24 in 7.0 mi Calm Calm - N/A   Clear
5:55 AM 53.4 °F 46.6 °F 78% 30.25 in 7.0 mi Calm Calm - N/A   Clear
6:15 AM 51.4 °F 45.5 °F 80% 30.26 in 7.0 mi Calm Calm - N/A   Clear
6:35 AM 50.2 °F 44.6 °F 81% 30.27 in 7.0 mi Calm Calm - N/A   Clear
6:55 AM 50.0 °F 44.6 °F 82% 30.28 in 5.0 mi Calm Calm - N/A   Haze
7:15 AM 49.6 °F 43.9 °F 81% 30.28 in 7.0 mi Calm Calm - N/A   Clear
7:35 AM 49.6 °F 41.0 °F 72% 30.30 in 7.0 mi Calm Calm - N/A   Clear
7:55 AM 49.5 °F 43.2 °F 79% 30.30 in 7.0 mi Calm Calm - N/A   Clear
8:15 AM 50.2 °F 43.9 °F 79% 30.31 in 7.0 mi NNE 3.5 mph - N/A   Clear
8:35 AM 52.7 °F 45.5 °F 76% 30.33 in 7.0 mi NE 6.9 mph - N/A   Clear
8:55 AM 54.7 °F 46.4 °F 74% 30.34 in 7.0 mi NNE 3.5 mph - N/A   Clear
9:15 AM 57.9 °F 47.5 °F 68% 30.36 in 7.0 mi NNE 5.8 mph - N/A   Clear
9:35 AM 62.2 °F 49.1 °F 62% 30.37 in 7.0 mi NE 5.8 mph - N/A   Clear
9:55 AM 64.9 °F 50.2 °F 59% 30.37 in 5.0 mi ENE 5.8 mph - N/A   Haze
10:15 AM 68.0 °F 51.8 °F 56% 30.37 in 5.0 mi NE 6.9 mph - N/A   Haze
10:35 AM 70.0 °F 52.5 °F 54% 30.38 in 7.0 mi East 8.1 mph - N/A   Clear
10:55 AM 71.1 °F 52.7 °F 52% 30.38 in 7.0 mi ESE 9.2 mph - N/A   Clear
11:15 AM 72.3 °F 51.6 °F 48% 30.38 in 7.0 mi East 6.9 mph - N/A   Clear
11:35 AM 73.2 °F 50.4 °F 44% 30.39 in 7.0 mi ESE 8.1 mph - N/A   Clear
11:55 AM 74.8 °F 49.8 °F 41% 30.39 in 7.0 mi ESE 8.1 mph - N/A   Clear
12:15 PM 75.2 °F 49.1 °F 40% 30.38 in 7.0 mi ESE 13.8 mph 18.4 mph N/A   Clear
12:35 PM 76.1 °F 48.0 °F 37% 30.38 in 7.0 mi East 12.7 mph 18.4 mph N/A   Clear
12:55 PM 77.0 °F 44.6 °F 32% 30.37 in 7.0 mi ENE 10.4 mph 17.3 mph N/A   Clear
1:15 PM 77.9 °F 44.4 °F 30% 30.36 in 7.0 mi East 12.7 mph 18.4 mph N/A   Clear
1:35 PM 78.8 °F 43.9 °F 29% 30.35 in 7.0 mi Calm Calm - N/A   Clear
1:55 PM 78.4 °F 45.0 °F 30% 30.34 in 7.0 mi ESE 8.1 mph - N/A   Clear
2:15 PM 79.7 °F 44.4 °F 29% 30.33 in 7.0 mi East 11.5 mph 18.4 mph N/A   Clear
2:35 PM 80.1 °F 43.2 °F 27% 30.31 in 7.0 mi East 16.1 mph 21.9 mph N/A   Clear
2:55 PM 80.4 °F 41.7 °F 25% 30.31 in 7.0 mi East 8.1 mph - N/A   Clear
3:15 PM 80.6 °F 41.9 °F 25% 30.30 in 7.0 mi SE 11.5 mph 18.4 mph N/A   Clear
3:35 PM 81.9 °F 42.1 °F 24% 30.29 in 7.0 mi East 12.7 mph 20.7 mph N/A   Clear
3:55 PM 80.6 °F 41.5 °F 25% 30.29 in 7.0 mi East 16.1 mph 21.9 mph N/A   Clear
4:15 PM 80.8 °F 39.7 °F 23% 30.28 in 7.0 mi ENE 12.7 mph 19.6 mph N/A   Clear
4:35 PM 81.5 °F 42.8 °F 25% 30.28 in 7.0 mi East 12.7 mph 21.9 mph N/A   Clear
4:55 PM 79.7 °F 44.1 °F 28% 30.28 in 7.0 mi East 15.0 mph 21.9 mph N/A   Clear
5:15 PM 79.0 °F 44.4 °F 29% 30.28 in 7.0 mi East 12.7 mph 19.6 mph N/A   Clear
5:35 PM 78.4 °F 44.8 °F 30% 30.28 in 7.0 mi East 16.1 mph 20.7 mph N/A   Clear
5:55 PM 77.4 °F 44.6 °F 31% 30.29 in 5.0 mi East 17.3 mph 24.2 mph N/A   Haze
6:15 PM 76.5 °F 45.0 °F 33% 30.29 in 7.0 mi East 17.3 mph - N/A   Clear
6:35 PM 75.6 °F 44.2 °F 33% 30.30 in 7.0 mi East 17.3 mph - N/A   Clear
6:55 PM 74.5 °F 43.5 °F 33% 30.30 in 7.0 mi East 18.4 mph - N/A   Clear
7:15 PM 72.7 °F 45.0 °F 37% 30.31 in 7.0 mi East 18.4 mph - N/A   Clear
7:35 PM 71.2 °F 45.3 °F 39% 30.31 in 7.0 mi East 18.4 mph - N/A   Clear
7:55 PM 70.0 °F 46.8 °F 43% 30.31 in 7.0 mi East 16.1 mph - N/A   Clear
8:15 PM 68.9 °F 47.3 °F 46% 30.32 in 7.0 mi East 12.7 mph - N/A   Clear
8:35 PM 67.8 °F 48.2 °F 49% 30.32 in 10.0 mi East 11.5 mph - N/A   Clear
8:55 PM 67.1 °F 48.4 °F 51% 30.32 in 7.0 mi East 11.5 mph - N/A   Clear
9:15 PM 66.2 °F 49.3 °F 54% 30.33 in 10.0 mi East 10.4 mph - N/A   Clear
9:35 PM 65.5 °F 50.4 °F 58% 30.33 in 7.0 mi East 8.1 mph - N/A   Clear
9:55 PM 65.1 °F 51.1 °F 60% 30.34 in 7.0 mi ESE 8.1 mph - N/A   Clear
10:15 PM 64.4 °F 50.9 °F 62% 30.34 in 7.0 mi ESE 6.9 mph - N/A   Clear
10:35 PM 63.0 °F 50.2 °F 63% 30.35 in 10.0 mi East 5.8 mph - N/A   Clear
10:55 PM 61.7 °F 50.2 °F 66% 30.35 in 10.0 mi ESE 4.6 mph - N/A   Clear
11:15 PM 61.0 °F 50.0 °F 67% 30.36 in 7.0 mi ESE 3.5 mph - N/A   Clear
11:35 PM 60.1 °F 49.5 °F 68% 30.35 in 10.0 mi Calm Calm - N/A   Clear
11:55 PM 59.9 °F 49.3 °F 68% 30.36 in 7.0 mi Calm Calm - N/A   Clear